Arcadia, Pennsylvania
Current Conditions -  °F | °C
As of 8:15 AM on Saturday 25 Oct 2014 (Local Time) from KIDI Reporting Station
Overcast Overcast  
Wind Chill:   Ceiling: 4300
Heat Index:   Visibility: 10mi
Dew Point:   Wind: 7mph
Humidity: 81%   Direction: 240°WSW
Pressure: 29.99"   Gusts: NA
Location:  40.78°N, 78.85°W
Report Text: KIDI 251215Z AUTO 24006KT 10SM OVC043 08/05 A2999 RMK A01
Loading
Personal Weather Stations






























Interactive Weather Map
Tropical Storm Tracking
New forecast layout! Learn more

10-Day Weather Forecast

Advertisements
Track Severe Weather on mobile